IE-0023 weather

Ardfert Airstrip
Ardfert, Ireland

Public forecast

Using degrees Celsius for public forecast. Weather courtesy of forecast.io.

Closest aviation weather report (METAR) to Ardfert Airstrip

Closest report is Kerry Airport, 13.3 nm (24.6 km) SE. Retrieved 2020/07/04 14:00 UTC (10 minutes ago):

EIKY 041400Z 26017KT 9999 FEW008 BKN011 BKN020 17/15 Q1007

Closest aviation forecast (TAF) to Ardfert Airstrip

Closest forecast is Shannon Airport, 37.3 nm (69.1 km) NE. Retrieved 2020/07/04 12:11 UTC (2 hours ago):

TAF EINN 041100Z 0412/0512 24010KT 7000 BKN012 TEMPO 0412/0423 4000 -RADZ BKN007 PROB40 TEMPO 0412/0417 2500 BKN004 BECMG 0416/0418 20010KT BECMG 0419/0421 23020G35KT BECMG 0500/0502 26018G30KT BKN030 TEMPO 0510/0512 26020G36KT SCT020CB